createdAt,value
2022-11-23T00:00:50.397Z,7.78
2022-11-23T00:03:18.321Z,7.81
2022-11-23T00:05:46.075Z,7.86
2022-11-23T00:08:13.825Z,7.86
2022-11-23T00:10:41.978Z,7.88
2022-11-23T00:13:09.766Z,7.91
2022-11-23T00:15:37.488Z,7.92
2022-11-23T00:18:06.747Z,7.93
2022-11-23T00:20:34.496Z,7.94
2022-11-23T00:23:02.264Z,7.94
2022-11-23T00:25:30.003Z,7.90
2022-11-23T00:27:57.756Z,7.92
2022-11-23T00:30:25.478Z,7.95
2022-11-23T00:32:55.087Z,7.94
2022-11-23T00:35:25.166Z,7.97
2022-11-23T00:37:52.939Z,8.00
2022-11-23T00:40:20.675Z,8.01
2022-11-23T00:42:48.410Z,8.01
2022-11-23T00:45:16.228Z,8.04
2022-11-23T00:47:43.981Z,8.06
2022-11-23T00:50:11.703Z,8.08
2022-11-23T00:52:40.859Z,8.10
2022-11-23T00:55:09.266Z,8.11
2022-11-23T00:57:37.012Z,8.12
2022-11-23T01:00:05.935Z,8.12
2022-11-23T01:02:35.568Z,8.12
2022-11-23T01:05:03.422Z,8.13
2022-11-23T01:07:31.580Z,8.14
2022-11-23T01:10:00.711Z,8.12
2022-11-23T01:12:29.724Z,8.12
2022-11-23T01:14:57.469Z,8.14
2022-11-23T01:17:25.234Z,8.14
2022-11-23T01:19:52.978Z,8.14
2022-11-23T01:22:21.229Z,8.15
2022-11-23T01:24:52.396Z,8.13
2022-11-23T01:27:21.530Z,8.11
2022-11-23T01:29:51.628Z,8.11
2022-11-23T01:32:20.382Z,8.11
2022-11-23T01:34:48.136Z,8.11
2022-11-23T01:37:15.868Z,8.12
2022-11-23T01:39:45.603Z,8.15
2022-11-23T01:42:17.714Z,8.15
2022-11-23T01:44:47.298Z,8.15
2022-11-23T01:47:15.021Z,8.15
2022-11-23T01:49:45.983Z,8.15
2022-11-23T01:52:19.103Z,8.15
2022-11-23T01:54:50.444Z,8.12
2022-11-23T01:57:22.427Z,8.13
2022-11-23T01:59:52.568Z,8.15
2022-11-23T02:02:20.646Z,8.15
2022-11-23T02:04:55.917Z,8.14
2022-11-23T02:07:26.291Z,8.12
2022-11-23T02:09:54.280Z,8.10
2022-11-23T02:12:22.055Z,8.10
2022-11-23T02:14:51.378Z,8.10
2022-11-23T02:17:21.969Z,8.08
2022-11-23T02:19:57.014Z,8.07
2022-11-23T02:22:34.590Z,8.08
2022-11-23T02:25:08.439Z,8.05
2022-11-23T02:27:38.942Z,8.03
2022-11-23T02:30:11.004Z,8.04
2022-11-23T02:32:39.806Z,8.02
2022-11-23T02:35:07.993Z,8.01
2022-11-23T02:37:35.834Z,7.98
2022-11-23T02:40:10.863Z,7.96
2022-11-23T02:42:40.192Z,7.93
2022-11-23T02:45:16.895Z,7.94
2022-11-23T02:47:44.614Z,7.93
2022-11-23T02:50:12.375Z,7.86
2022-11-23T02:52:42.868Z,7.86
2022-11-23T02:55:10.966Z,7.87
2022-11-23T02:57:40.078Z,7.87
2022-11-23T03:00:12.626Z,7.88
2022-11-23T03:02:40.539Z,7.91
2022-11-23T03:05:09.192Z,7.92
2022-11-23T03:07:37.115Z,7.93
2022-11-23T03:10:05.539Z,7.94
2022-11-23T03:12:33.307Z,7.90
2022-11-23T03:15:04.690Z,7.90
2022-11-23T03:17:35.307Z,7.89
2022-11-23T03:20:03.548Z,7.86
2022-11-23T03:22:36.491Z,7.86
2022-11-23T03:25:04.983Z,7.86
2022-11-23T03:27:34.848Z,7.86
2022-11-23T03:30:04.086Z,7.84
2022-11-23T03:32:34.699Z,7.79
2022-11-23T03:35:02.804Z,7.80
2022-11-23T03:37:30.695Z,7.81
2022-11-23T03:39:58.739Z,7.82
2022-11-23T03:42:58.305Z,7.82
2022-11-23T03:45:27.468Z,7.83
2022-11-23T03:47:55.473Z,7.82
2022-11-23T03:50:23.498Z,7.82
2022-11-23T03:52:51.465Z,7.78
2022-11-23T03:55:19.184Z,7.78
2022-11-23T03:57:48.624Z,7.78
2022-11-23T04:00:17.229Z,7.80
2022-11-23T04:02:47.971Z,7.82
2022-11-23T04:05:41.810Z,7.82
2022-11-23T04:08:38.538Z,7.85
2022-11-23T04:11:11.159Z,7.88
2022-11-23T04:13:42.020Z,7.88
2022-11-23T04:16:10.381Z,7.87
2022-11-23T04:18:40.651Z,7.81
2022-11-23T04:21:09.363Z,7.83
2022-11-23T04:23:37.224Z,7.81
2022-11-23T04:26:06.896Z,7.80
2022-11-23T04:28:35.231Z,7.83
2022-11-23T04:31:03.380Z,7.83
2022-11-23T04:33:41.686Z,7.86
2022-11-23T04:36:10.144Z,7.78
2022-11-23T04:38:38.275Z,7.70
2022-11-23T04:41:06.694Z,7.66
2022-11-23T04:43:34.538Z,7.66
2022-11-23T04:46:03.667Z,7.71
2022-11-23T04:48:31.975Z,7.75
2022-11-23T04:51:01.226Z,7.76
2022-11-23T04:53:35.094Z,7.77
2022-11-23T04:56:02.951Z,7.78
2022-11-23T04:58:36.422Z,7.79
2022-11-23T05:01:04.671Z,7.80
2022-11-23T05:03:35.829Z,7.82
2022-11-23T05:06:08.712Z,7.79
2022-11-23T05:08:42.116Z,7.74
2022-11-23T05:11:33.204Z,7.68
2022-11-23T05:14:02.455Z,7.64
2022-11-23T05:16:31.321Z,7.58
2022-11-23T05:18:59.935Z,7.52
2022-11-23T05:21:29.104Z,7.48
2022-11-23T05:23:56.894Z,7.47
2022-11-23T05:26:24.780Z,7.51
2022-11-23T05:28:53.449Z,7.56
2022-11-23T05:31:21.227Z,7.56
2022-11-23T05:33:49.478Z,7.57
2022-11-23T05:36:22.900Z,7.58
2022-11-23T05:38:52.663Z,7.60
2022-11-23T05:41:27.402Z,7.66
2022-11-23T05:43:58.490Z,7.66
2022-11-23T05:46:29.068Z,7.70
2022-11-23T05:48:56.877Z,7.74
2022-11-23T05:51:25.796Z,7.75
2022-11-23T05:53:57.079Z,7.77
2022-11-23T05:56:40.610Z,7.80
2022-11-23T05:59:16.244Z,7.81
2022-11-23T06:01:48.792Z,7.81
2022-11-23T06:04:24.362Z,7.82
2022-11-23T06:06:54.391Z,7.79
2022-11-23T06:09:23.515Z,7.81
2022-11-23T06:11:54.083Z,7.81
2022-11-23T06:14:21.932Z,7.83
2022-11-23T06:16:51.847Z,7.86
2022-11-23T06:19:36.891Z,7.87
2022-11-23T06:22:06.325Z,7.82
2022-11-23T06:24:41.017Z,7.84
2022-11-23T06:27:27.027Z,7.81
2022-11-23T06:29:54.959Z,7.83
2022-11-23T06:32:25.320Z,7.81
2022-11-23T06:34:56.658Z,7.84
2022-11-23T06:37:27.502Z,7.81
2022-11-23T06:39:57.425Z,7.80
2022-11-23T06:42:39.093Z,7.80
2022-11-23T06:45:13.310Z,7.74
2022-11-23T06:47:41.471Z,7.73
2022-11-23T06:50:09.998Z,7.73
2022-11-23T06:52:38.801Z,7.69
2022-11-23T06:55:08.641Z,7.64
2022-11-23T06:57:36.494Z,7.61
2022-11-23T07:00:06.176Z,7.49
2022-11-23T07:02:37.930Z,7.42
2022-11-23T07:05:06.248Z,7.39
2022-11-23T07:07:34.179Z,7.37
2022-11-23T07:10:13.553Z,7.30
2022-11-23T07:12:46.896Z,7.27
2022-11-23T07:15:17.066Z,7.30
2022-11-23T07:17:46.150Z,7.18
2022-11-23T07:20:14.940Z,7.10
2022-11-23T07:22:42.902Z,7.04
2022-11-23T07:25:16.561Z,6.99
2022-11-23T07:27:44.563Z,7.02
2022-11-23T07:30:13.438Z,6.99
2022-11-23T07:32:41.180Z,7.04
2022-11-23T07:35:09.774Z,7.07
2022-11-23T07:37:39.972Z,7.05
2022-11-23T07:40:09.162Z,7.13
2022-11-23T07:42:44.399Z,7.14
2022-11-23T07:45:13.501Z,7.20
2022-11-23T07:47:46.086Z,7.25
2022-11-23T07:50:15.854Z,7.28
2022-11-23T07:52:43.594Z,7.30
2022-11-23T07:55:11.473Z,7.35
2022-11-23T07:57:40.593Z,7.37
2022-11-23T08:00:09.943Z,7.39
2022-11-23T08:02:53.046Z,7.46
2022-11-23T08:05:28.618Z,7.50
2022-11-23T08:07:59.793Z,7.52
2022-11-23T08:10:27.646Z,7.55
2022-11-23T08:12:58.510Z,7.57
2022-11-23T08:15:28.112Z,7.59
2022-11-23T08:17:56.963Z,7.62
2022-11-23T08:20:24.730Z,7.64
2022-11-23T08:22:52.830Z,7.66
2022-11-23T08:25:20.597Z,7.70
2022-11-23T08:27:48.365Z,7.72
2022-11-23T08:30:18.070Z,7.71
2022-11-23T08:32:45.824Z,7.71
2022-11-23T08:35:13.632Z,7.82
2022-11-23T08:37:41.542Z,7.91
2022-11-23T08:40:10.338Z,8.00
2022-11-23T08:42:38.077Z,8.10
2022-11-23T08:45:06.846Z,8.16
2022-11-23T08:47:36.020Z,8.24
2022-11-23T08:50:03.788Z,8.33
2022-11-23T08:52:31.515Z,8.52
2022-11-23T08:54:59.356Z,8.58
2022-11-23T08:57:28.495Z,8.70
2022-11-23T08:59:56.562Z,8.75
2022-11-23T09:02:24.373Z,8.52
2022-11-23T09:04:53.543Z,8.53
2022-11-23T09:07:21.469Z,8.58
2022-11-23T09:09:49.284Z,8.54
2022-11-23T09:12:17.056Z,8.54
2022-11-23T09:14:44.915Z,8.58
2022-11-23T09:17:12.637Z,8.56
2022-11-23T09:19:40.422Z,8.58
2022-11-23T09:22:09.539Z,8.58
2022-11-23T09:24:37.676Z,8.66
2022-11-23T09:27:05.613Z,8.88
2022-11-23T09:29:33.448Z,9.04
2022-11-23T09:32:02.885Z,9.08
2022-11-23T09:34:30.993Z,9.09
2022-11-23T09:36:59.076Z,9.25
2022-11-23T09:39:28.276Z,9.52
2022-11-23T09:42:17.632Z,9.96
2022-11-23T09:45:01.014Z,10.25
2022-11-23T09:47:51.482Z,10.10
2022-11-23T09:50:28.592Z,10.03
2022-11-23T09:52:56.149Z,10.06
2022-11-23T09:55:37.603Z,10.13
2022-11-23T09:58:07.406Z,10.11
2022-11-23T10:00:39.769Z,10.13
2022-11-23T10:03:07.658Z,10.28
2022-11-23T10:05:40.356Z,10.46
2022-11-23T10:08:20.041Z,10.51
2022-11-23T10:10:55.136Z,10.45
2022-11-23T10:13:35.731Z,10.42
2022-11-23T10:16:33.676Z,10.55
2022-11-23T10:19:09.698Z,10.34
2022-11-23T10:21:46.202Z,10.63
2022-11-23T10:24:20.402Z,10.68
2022-11-23T10:26:51.343Z,10.68
2022-11-23T10:29:26.797Z,10.92
2022-11-23T10:31:57.325Z,10.91
2022-11-23T10:34:36.532Z,10.83
2022-11-23T10:37:04.320Z,10.94
2022-11-23T10:39:32.648Z,10.90
2022-11-23T10:42:10.699Z,11.15
2022-11-23T10:44:39.069Z,11.35
2022-11-23T10:47:06.921Z,11.29
2022-11-23T10:49:36.429Z,10.90
2022-11-23T10:52:06.215Z,10.91
2022-11-23T10:54:37.690Z,11.12
2022-11-23T10:57:30.771Z,11.19
2022-11-23T11:00:00.746Z,11.38
2022-11-23T11:02:30.779Z,11.01
2022-11-23T11:05:16.292Z,10.87
2022-11-23T11:07:44.328Z,10.83
2022-11-23T11:10:49.957Z,11.21
2022-11-23T11:13:31.392Z,11.16
2022-11-23T11:16:01.469Z,11.13
2022-11-23T11:18:32.255Z,10.94
2022-11-23T11:21:03.904Z,10.63
2022-11-23T11:23:32.740Z,10.49
2022-11-23T11:26:06.445Z,10.40
2022-11-23T11:28:39.393Z,10.29
2022-11-23T11:31:23.028Z,10.03
2022-11-23T11:33:57.855Z,9.79
2022-11-23T11:36:31.207Z,9.81
2022-11-23T11:39:18.931Z,9.77
2022-11-23T11:41:51.722Z,9.62
2022-11-23T11:44:23.803Z,9.51
2022-11-23T11:46:58.403Z,9.62
2022-11-23T11:49:31.240Z,9.70
2022-11-23T11:52:07.114Z,9.76
2022-11-23T11:54:42.754Z,10.02
2022-11-23T11:57:18.932Z,10.11
2022-11-23T11:59:50.294Z,10.23
2022-11-23T12:02:23.754Z,10.43
2022-11-23T12:05:00.123Z,10.48
2022-11-23T12:07:31.693Z,10.61
2022-11-23T12:10:06.680Z,10.56
2022-11-23T12:12:36.755Z,10.59
2022-11-23T12:15:26.608Z,10.38
2022-11-23T12:18:16.638Z,10.32
2022-11-23T12:20:52.119Z,10.44
2022-11-23T12:23:33.077Z,10.53
2022-11-23T12:26:17.189Z,10.69
2022-11-23T12:29:04.150Z,10.83
2022-11-23T12:31:42.318Z,10.89
2022-11-23T12:34:35.904Z,10.96
2022-11-23T12:37:17.864Z,11.27
2022-11-23T12:40:04.662Z,11.11
2022-11-23T12:42:42.341Z,11.20
2022-11-23T12:45:23.363Z,11.08
2022-11-23T12:48:00.665Z,10.99
2022-11-23T12:50:35.404Z,10.97
2022-11-23T12:53:20.241Z,10.93
2022-11-23T12:55:55.407Z,10.95
2022-11-23T12:58:27.300Z,10.93
2022-11-23T13:00:58.811Z,11.00
2022-11-23T13:04:04.016Z,11.18
2022-11-23T13:07:28.010Z,10.69
2022-11-23T13:10:23.664Z,10.36
2022-11-23T13:13:16.793Z,10.43
2022-11-23T13:16:06.523Z,10.30
2022-11-23T13:18:48.915Z,10.18
2022-11-23T13:21:30.236Z,10.20
2022-11-23T13:23:58.143Z,10.11
2022-11-23T13:26:28.170Z,9.93
2022-11-23T13:28:58.588Z,9.89
2022-11-23T13:31:31.616Z,9.84
2022-11-23T13:34:01.465Z,9.88
2022-11-23T13:40:08.139Z,9.71
2022-11-23T13:42:36.527Z,9.73
2022-11-23T13:45:28.426Z,9.62
2022-11-23T13:51:06.523Z,9.59
2022-11-23T13:53:38.218Z,9.58
2022-11-23T13:56:24.500Z,9.59
2022-11-23T13:58:54.669Z,9.26
2022-11-23T14:02:04.685Z,9.05
2022-11-23T14:04:33.410Z,8.90
2022-11-23T14:07:06.829Z,8.57
2022-11-23T14:09:40.143Z,8.22
2022-11-23T14:12:21.804Z,8.06
2022-11-23T14:14:55.213Z,8.02
2022-11-23T14:18:00.056Z,7.93
2022-11-23T14:20:41.062Z,7.71
2022-11-23T14:23:23.238Z,7.47
2022-11-23T14:26:00.760Z,7.34
2022-11-23T14:28:45.665Z,7.24
2022-11-23T14:31:24.113Z,7.30
2022-11-23T14:34:00.087Z,7.26
2022-11-23T14:36:38.768Z,7.15
2022-11-23T14:39:47.000Z,7.25
2022-11-23T14:42:20.694Z,7.28
2022-11-23T14:44:50.751Z,7.27
2022-11-23T14:47:27.527Z,7.31
2022-11-23T14:49:55.870Z,7.30
2022-11-23T14:52:27.284Z,7.32
2022-11-23T14:54:58.150Z,7.30
2022-11-23T14:57:30.584Z,7.22
2022-11-23T15:00:01.838Z,7.17
2022-11-23T15:02:36.568Z,7.14
2022-11-23T15:05:09.165Z,7.09
2022-11-23T15:07:48.259Z,7.09
2022-11-23T15:10:29.700Z,7.02
2022-11-23T15:12:58.795Z,6.97
2022-11-23T15:15:28.005Z,6.96
2022-11-23T15:17:57.537Z,6.97
2022-11-23T15:20:29.362Z,6.93
2022-11-23T15:22:57.112Z,6.95
2022-11-23T15:25:24.916Z,6.93
2022-11-23T15:27:52.681Z,6.92
2022-11-23T15:30:23.741Z,6.91
2022-11-23T15:32:58.862Z,6.88
2022-11-23T15:35:32.685Z,6.88
2022-11-23T15:38:01.779Z,6.86
2022-11-23T15:40:33.525Z,6.86
2022-11-23T15:43:01.520Z,6.84
2022-11-23T15:45:38.813Z,6.85
2022-11-23T15:48:13.085Z,6.87
2022-11-23T15:50:52.727Z,6.87
2022-11-23T15:53:22.987Z,6.86
2022-11-23T15:55:51.146Z,6.90
2022-11-23T15:58:20.706Z,6.89
2022-11-23T16:00:53.102Z,6.91
2022-11-23T16:03:42.462Z,6.90
2022-11-23T16:06:17.269Z,6.88
2022-11-23T16:08:45.146Z,6.89
2022-11-23T16:11:29.711Z,6.89
2022-11-23T16:14:15.363Z,6.89
2022-11-23T16:16:46.722Z,6.87
2022-11-23T16:19:33.583Z,6.91
2022-11-23T16:22:04.400Z,6.90
2022-11-23T16:24:36.619Z,6.94
2022-11-23T16:27:13.774Z,6.97
2022-11-23T16:29:42.152Z,6.95
2022-11-23T16:32:23.403Z,6.98
2022-11-23T16:34:51.228Z,7.03
2022-11-23T16:37:19.120Z,7.03
2022-11-23T16:39:46.891Z,7.04
2022-11-23T16:42:15.595Z,7.05
2022-11-23T16:44:43.953Z,7.00
2022-11-23T16:47:23.833Z,7.01
2022-11-23T16:49:51.996Z,7.01
2022-11-23T16:52:20.744Z,7.05
2022-11-23T16:54:48.477Z,7.07
2022-11-23T16:57:25.359Z,7.09
2022-11-23T16:59:53.309Z,7.14
2022-11-23T17:02:23.041Z,7.15
2022-11-23T17:04:50.865Z,7.16
2022-11-23T17:07:18.751Z,7.18
2022-11-23T17:09:46.599Z,7.21
2022-11-23T17:12:18.170Z,7.25
2022-11-23T17:14:48.178Z,7.26
2022-11-23T17:17:20.503Z,7.27
2022-11-23T17:19:50.223Z,7.24
2022-11-23T17:22:19.299Z,7.27
2022-11-23T17:24:48.235Z,7.28
2022-11-23T17:27:18.179Z,7.29
2022-11-23T17:29:47.182Z,7.32
2022-11-23T17:32:15.826Z,7.31
2022-11-23T17:34:43.575Z,7.32
2022-11-23T17:37:18.367Z,7.30
2022-11-23T17:39:46.301Z,7.31
2022-11-23T17:42:14.504Z,7.32
2022-11-23T17:44:42.359Z,7.37
2022-11-23T17:47:25.123Z,7.38
2022-11-23T17:49:53.183Z,7.40
2022-11-23T17:52:22.368Z,7.38
2022-11-23T17:54:50.138Z,7.39
2022-11-23T17:57:20.946Z,7.40
2022-11-23T17:59:48.657Z,7.40
2022-11-23T18:02:16.846Z,7.42
2022-11-23T18:04:44.646Z,7.43
2022-11-23T18:07:14.505Z,7.43
2022-11-23T18:09:44.220Z,7.40
2022-11-23T18:12:12.057Z,7.42
2022-11-23T18:14:39.786Z,7.43
2022-11-23T18:17:07.479Z,7.41
2022-11-23T18:19:35.435Z,7.38
2022-11-23T18:22:03.347Z,7.36
2022-11-23T18:24:31.121Z,7.38
2022-11-23T18:27:00.193Z,7.43
2022-11-23T18:29:28.130Z,7.38
2022-11-23T18:31:55.886Z,7.38
2022-11-23T18:34:23.762Z,7.36
2022-11-23T18:36:51.507Z,7.33
2022-11-23T18:39:19.340Z,7.30
2022-11-23T18:41:47.528Z,7.28
2022-11-23T18:44:16.620Z,7.26
2022-11-23T18:46:45.614Z,7.22
2022-11-23T18:49:14.117Z,7.18
2022-11-23T18:51:41.889Z,7.15
2022-11-23T18:54:09.653Z,7.14
2022-11-23T18:56:37.400Z,7.09
2022-11-23T18:59:05.197Z,7.08
2022-11-23T19:01:35.114Z,7.04
2022-11-23T19:04:02.982Z,7.01
2022-11-23T19:06:30.839Z,7.00
2022-11-23T19:08:58.602Z,6.99
2022-11-23T19:11:28.629Z,6.98
2022-11-23T19:13:57.987Z,6.95
2022-11-23T19:16:27.639Z,6.91
2022-11-23T19:18:57.994Z,6.89
2022-11-23T19:21:28.580Z,6.88
2022-11-23T19:23:58.123Z,6.87
2022-11-23T19:26:27.146Z,6.84
2022-11-23T19:28:55.506Z,6.82
2022-11-23T19:31:25.361Z,6.81
2022-11-23T19:33:54.231Z,6.81
2022-11-23T19:36:25.116Z,6.79
2022-11-23T19:38:54.560Z,6.76
2022-11-23T19:41:28.223Z,6.77
2022-11-23T19:43:59.269Z,6.77
2022-11-23T19:46:27.497Z,6.75
2022-11-23T19:48:57.181Z,6.74
2022-11-23T19:51:27.694Z,6.74
2022-11-23T19:53:57.007Z,6.74
2022-11-23T19:56:27.489Z,6.71
2022-11-23T19:58:57.313Z,6.69
2022-11-23T20:01:27.060Z,6.68
2022-11-23T20:03:57.192Z,6.65
2022-11-23T20:06:28.317Z,6.62
2022-11-23T20:08:56.537Z,6.57
2022-11-23T20:11:24.749Z,6.54
2022-11-23T20:13:52.655Z,6.58
2022-11-23T20:16:21.748Z,6.63
2022-11-23T20:18:52.329Z,6.65
2022-11-23T20:21:20.812Z,6.63
2022-11-23T20:23:50.618Z,6.56
2022-11-23T20:26:19.606Z,6.53
2022-11-23T20:28:51.202Z,6.53
2022-11-23T20:31:21.079Z,6.53
2022-11-23T20:33:50.527Z,6.47
2022-11-23T20:36:19.624Z,6.38
2022-11-23T20:38:47.827Z,6.31
2022-11-23T20:41:18.416Z,6.25
2022-11-23T20:43:47.717Z,6.25
2022-11-23T20:46:31.728Z,6.20
2022-11-23T20:49:04.410Z,6.24
2022-11-23T20:51:32.200Z,6.17
2022-11-23T20:54:00.280Z,6.15
2022-11-23T20:56:30.232Z,6.18
2022-11-23T20:59:00.259Z,6.19
2022-11-23T21:01:28.959Z,6.20
2022-11-23T21:04:00.255Z,6.19
2022-11-23T21:06:28.551Z,6.23
2022-11-23T21:08:56.689Z,6.24
2022-11-23T21:11:43.098Z,6.28
2022-11-23T21:14:17.764Z,6.35
2022-11-23T21:16:52.693Z,6.40
2022-11-23T21:19:21.795Z,6.46
2022-11-23T21:21:52.519Z,6.50
2022-11-23T21:24:21.986Z,6.49
2022-11-23T21:26:50.631Z,6.46
2022-11-23T21:29:20.106Z,6.45
2022-11-23T21:31:49.308Z,6.38
2022-11-23T21:34:20.438Z,6.38
2022-11-23T21:36:48.520Z,6.34
2022-11-23T21:39:17.229Z,6.36
2022-11-23T21:41:45.924Z,6.43
2022-11-23T21:44:13.964Z,6.43
2022-11-23T21:46:43.502Z,6.45
2022-11-23T21:49:12.894Z,6.49
2022-11-23T21:51:42.613Z,6.52
2022-11-23T21:54:14.172Z,6.54
2022-11-23T21:56:42.849Z,6.55
2022-11-23T21:59:10.966Z,6.59
2022-11-23T22:01:39.259Z,6.62
2022-11-23T22:04:10.558Z,6.65
2022-11-23T22:06:39.795Z,6.70
2022-11-23T22:09:09.728Z,6.69
2022-11-23T22:11:40.883Z,6.70
2022-11-23T22:14:10.744Z,6.71
2022-11-23T22:16:40.701Z,6.72
2022-11-23T22:19:11.677Z,6.71
2022-11-23T22:21:40.682Z,6.74
2022-11-23T22:24:12.417Z,6.75
2022-11-23T22:26:40.339Z,6.78
2022-11-23T22:29:08.291Z,6.80
2022-11-23T22:31:36.613Z,6.83
2022-11-23T22:34:06.604Z,6.85
2022-11-23T22:36:35.735Z,6.83
2022-11-23T22:39:05.399Z,6.87
2022-11-23T22:41:36.359Z,6.89
2022-11-23T22:44:05.192Z,6.86
2022-11-23T22:46:33.006Z,6.87
2022-11-23T22:49:01.824Z,6.89
2022-11-23T22:51:30.399Z,6.90
2022-11-23T22:54:00.981Z,6.94
2022-11-23T22:56:30.328Z,6.96
2022-11-23T22:58:58.229Z,7.01
2022-11-23T23:01:27.896Z,7.04
2022-11-23T23:03:57.216Z,7.08
2022-11-23T23:06:26.599Z,7.13
2022-11-23T23:08:56.019Z,7.15
2022-11-23T23:11:26.589Z,7.21
2022-11-23T23:13:54.670Z,7.22
2022-11-23T23:16:22.692Z,7.21
2022-11-23T23:18:51.437Z,7.23
2022-11-23T23:21:21.375Z,7.23
2022-11-23T23:23:50.766Z,7.25
2022-11-23T23:26:20.892Z,7.24
2022-11-23T23:28:50.554Z,7.23
2022-11-23T23:31:18.496Z,7.22
2022-11-23T23:33:46.921Z,7.17
2022-11-23T23:36:16.381Z,7.16
2022-11-23T23:38:44.199Z,7.18
2022-11-23T23:41:13.038Z,7.16
2022-11-23T23:43:41.679Z,7.13
2022-11-23T23:46:13.485Z,7.14
2022-11-23T23:48:42.123Z,7.14
2022-11-23T23:51:11.633Z,7.12
2022-11-23T23:53:40.043Z,7.14
2022-11-23T23:56:13.298Z,7.17
2022-11-23T23:58:41.472Z,7.19
